Time;durP1;ratioP1;P1;durP2;ratioP2;P2;SDS_P1;SDS_P2;PMS_P1;PMS_P2;Temp;Humidity;BMP_temperature;BMP_pressure;BME280_temperature;BME280_humidity;BME280_pressure;Samples;Min_cycle;Max_cycle;Signal;HPM_P1;HPM_P2
2021/10/22 00:01:38;;;;;;;;;11.00;10.00;;;;;9.52;65.47;101864.81;4982367;28;45356;-79
2021/10/22 00:04:04;;;;;;;;;7.50;7.50;;;;;9.51;65.55;101870.94;5000017;28;45300;-80
2021/10/22 00:06:29;;;;;;;;;12.75;9.00;;;;;9.48;65.51;101865.72;5002134;28;45411;-76
2021/10/22 00:08:55;;;;;;;;;10.25;8.00;;;;;9.48;65.49;101877.09;4996911;28;45391;-76
2021/10/22 00:11:20;;;;;;;;;12.00;12.00;;;;;9.48;65.58;101884.09;5002066;28;45396;-76
2021/10/22 00:13:45;;;;;;;;;13.00;12.50;;;;;9.44;65.40;101893.75;4986833;28;45463;-77
2021/10/22 00:16:11;;;;;;;;;10.75;10.50;;;;;9.44;65.94;101893.75;4982022;28;45268;-77
2021/10/22 00:18:36;;;;;;;;;9.75;9.75;;;;;9.41;65.81;101899.88;4985186;28;46297;-77
2021/10/22 00:21:02;;;;;;;;;9.25;9.25;;;;;9.43;65.93;101903.38;5001023;28;45572;-77
2021/10/22 00:23:27;;;;;;;;;9.25;8.75;;;;;9.41;67.49;101897.25;4993841;28;45504;-77
2021/10/22 00:25:52;;;;;;;;;9.50;8.00;;;;;9.38;65.94;101889.44;4991845;28;45222;-77
2021/10/22 00:28:18;;;;;;;;;8.50;7.00;;;;;9.40;65.59;101897.28;4996759;28;45431;-78
2021/10/22 00:30:43;;;;;;;;;8.00;8.00;;;;;9.34;65.92;101892.97;5000277;28;45416;-78
2021/10/22 00:33:09;;;;;;;;;7.50;7.50;;;;;9.32;65.98;101894.72;4983942;28;45234;-77
2021/10/22 00:35:34;;;;;;;;;9.00;8.25;;;;;9.32;65.72;101894.72;4982143;28;45315;-80
2021/10/22 00:38:00;;;;;;;;;10.50;9.25;;;;;9.26;65.79;101893.03;4981948;28;45646;-82
2021/10/22 00:40:26;;;;;;;;;13.50;11.75;;;;;9.25;65.90;101893.03;4982010;28;45625;-81
2021/10/22 00:42:56;;;;;;;;;13.00;11.25;;;;;9.22;66.16;101894.81;4990156;28;45467;-80
2021/10/22 00:45:22;;;;;;;;;17.00;11.50;;;;;9.22;66.28;101899.19;5000067;28;45705;-79
2021/10/22 00:47:47;;;;;;;;;12.50;11.00;;;;;9.21;66.00;101892.22;4988417;28;46092;-79
2021/10/22 00:50:13;;;;;;;;;11.50;11.00;;;;;9.19;65.77;101894.84;4985125;28;45174;-80
2021/10/22 00:52:40;;;;;;;;;8.75;8.75;;;;;9.16;66.15;101889.59;4983090;28;45293;-81
2021/10/22 00:55:11;;;;;;;;;8.00;8.00;;;;;9.19;65.83;101899.22;4997418;28;47285;-81
2021/10/22 00:57:38;;;;;;;;;14.00;12.00;;;;;9.13;65.94;101896.66;4981882;28;46407;-80
2021/10/22 01:00:04;;;;;;;;;13.00;12.50;;;;;9.13;66.00;101896.66;4991767;28;45697;-80
2021/10/22 01:02:30;;;;;;;;;8.00;8.00;;;;;9.09;66.31;101898.41;4987235;28;45499;-80
2021/10/22 01:04:55;;;;;;;;;11.00;11.00;;;;;9.08;66.11;101896.69;4981482;28;45209;-80
2021/10/22 01:07:20;;;;;;;;;11.00;9.50;;;;;9.08;66.14;101904.56;4981535;28;45207;-79
2021/10/22 01:09:46;;;;;;;;;11.75;9.50;;;;;9.10;66.41;101903.66;4990954;28;45374;-77
2021/10/22 01:12:12;;;;;;;;;11.50;10.50;;;;;9.06;66.30;101901.94;5001174;28;45284;-77
2021/10/22 01:14:39;;;;;;;;;11.00;11.00;;;;;9.05;65.98;101897.59;5000930;28;45458;-77
2021/10/22 01:17:04;;;;;;;;;12.50;11.25;;;;;9.02;66.24;101908.09;5011435;28;46036;-77
2021/10/22 01:19:30;;;;;;;;;12.25;12.25;;;;;9.02;66.15;101909.84;5014644;28;45394;-76
2021/10/22 01:21:56;;;;;;;;;12.50;11.00;;;;;9.00;65.88;101904.63;5020061;28;45273;-76
2021/10/22 01:24:21;;;;;;;;;13.75;10.75;;;;;9.00;66.03;101904.63;5020594;28;45551;-76
2021/10/22 01:26:48;;;;;;;;;19.00;12.25;;;;;9.02;66.40;101920.31;5020003;28;45258;-76
2021/10/22 01:29:14;;;;;;;;;11.75;10.75;;;;;9.00;66.09;101915.97;5007472;28;45269;-76
2021/10/22 01:31:40;;;;;;;;;17.25;12.75;;;;;8.98;66.34;101917.75;5006638;28;45255;-76
2021/10/22 01:34:06;;;;;;;;;11.25;10.75;;;;;8.99;66.10;101913.34;5009523;28;45603;-76
2021/10/22 01:36:33;;;;;;;;;9.75;9.50;;;;;8.97;66.17;101916.00;5000904;28;46513;-76
2021/10/22 01:38:58;;;;;;;;;13.75;11.00;;;;;8.97;66.37;101917.75;5003927;28;45550;-76
2021/10/22 01:41:24;;;;;;;;;14.75;13.00;;;;;8.94;66.57;101920.41;5039290;28;45367;-76
2021/10/22 01:43:50;;;;;;;;;11.25;10.00;;;;;8.92;66.66;101915.16;5023020;28;45437;-76
2021/10/22 01:46:16;;;;;;;;;10.75;10.75;;;;;8.94;66.59;101917.78;5020322;28;45590;-76
2021/10/22 01:48:41;;;;;;;;;13.50;11.25;;;;;8.92;66.15;101915.16;5000119;28;45595;-76
2021/10/22 01:51:07;;;;;;;;;11.75;10.75;;;;;8.93;66.15;101929.13;5017666;28;45446;-76
2021/10/22 01:53:33;;;;;;;;;12.25;12.00;;;;;8.88;66.60;101924.81;5020151;28;45560;-76
2021/10/22 01:55:58;;;;;;;;;11.75;11.00;;;;;8.89;66.26;101928.28;5018071;28;46864;-75
2021/10/22 01:58:24;;;;;;;;;9.75;9.75;;;;;8.86;66.42;101923.94;5020051;28;45212;-75
2021/10/22 02:00:50;;;;;;;;;15.00;11.50;;;;;8.84;66.43;101920.44;5020421;28;45282;-76
2021/10/22 02:03:16;;;;;;;;;18.50;14.00;;;;;8.83;66.81;101923.09;5020104;28;45257;-80
2021/10/22 02:05:41;;;;;;;;;10.75;10.50;;;;;8.85;66.87;101929.19;5015426;28;45424;-77
2021/10/22 02:08:07;;;;;;;;;11.50;11.50;;;;;8.83;66.61;101920.47;5015318;28;45276;-77
2021/10/22 02:10:32;;;;;;;;;11.75;11.50;;;;;8.78;67.08;101917.88;5022143;28;45549;-79
2021/10/22 02:12:59;;;;;;;;;11.50;10.50;;;;;8.81;66.81;101925.72;5032116;28;45429;-79
2021/10/22 02:15:24;;;;;;;;;11.75;11.50;;;;;8.81;66.39;101914.38;5018840;28;45541;-80
2021/10/22 02:17:51;;;;;;;;;4.00;0.75;;;;;8.76;66.71;101909.16;5019888;28;45434;-81
2021/10/22 02:20:16;;;;;;;;;13.00;12.00;;;;;8.75;66.70;101916.13;5019494;28;45414;-81
2021/10/22 02:22:42;;;;;;;;;11.00;10.25;;;;;8.73;66.88;101915.28;5019681;28;45326;-81
2021/10/22 02:25:07;;;;;;;;;10.00;10.00;;;;;8.71;66.95;101919.66;5001693;28;47188;-76
2021/10/22 02:27:33;;;;;;;;;11.00;9.25;;;;;8.74;66.49;101921.41;5019068;28;45284;-75
2021/10/22 02:29:59;;;;;;;;;11.75;8.75;;;;;8.70;66.54;101923.16;5009600;28;45470;-75
2021/10/22 02:32:24;;;;;;;;;4.00;4.00;;;;;8.68;66.80;101917.06;5017029;28;45353;-75
2021/10/22 02:34:50;;;;;;;;;13.00;9.50;;;;;8.68;66.52;101919.69;5018179;28;45215;-79
2021/10/22 02:37:15;;;;;;;;;14.25;7.00;;;;;8.68;66.61;101922.31;5000804;28;45262;-79
2021/10/22 02:39:40;;;;;;;;;8.00;8.00;;;;;8.64;66.88;101910.09;5002406;28;45458;-79
2021/10/22 02:42:06;;;;;;;;;7.25;6.00;;;;;8.64;66.40;101907.47;5001594;28;45483;-81
2021/10/22 02:44:32;;;;;;;;;9.50;8.25;;;;;8.63;66.76;101916.22;5018475;28;45462;-81
2021/10/22 02:46:58;;;;;;;;;11.50;10.25;;;;;8.67;66.59;101923.16;5019392;28;45472;-82
2021/10/22 02:49:24;;;;;;;;;7.25;7.00;;;;;8.66;66.61;101919.69;5006759;28;45257;-81
2021/10/22 02:51:49;;;;;;;;;9.75;9.75;;;;;8.64;66.61;101921.44;5019549;28;45343;-82
2021/10/22 02:54:15;;;;;;;;;10.75;8.00;;;;;8.61;66.94;101911.00;5018017;28;45547;-80
2021/10/22 02:56:40;;;;;;;;;8.75;8.75;;;;;8.64;67.13;101912.72;5019558;28;45406;-81
2021/10/22 02:59:06;;;;;;;;;7.75;7.75;;;;;8.63;66.57;101916.22;5006325;28;45580;-80
2021/10/22 03:01:31;;;;;;;;;11.75;10.25;;;;;8.60;66.97;101917.09;5019376;28;45298;-77
2021/10/22 03:03:57;;;;;;;;;16.50;13.75;;;;;8.62;66.89;101927.56;5018318;28;45491;-77
2021/10/22 03:06:22;;;;;;;;;11.00;9.50;;;;;8.61;66.80;101924.09;5026919;28;45383;-77
2021/10/22 03:08:48;;;;;;;;;13.00;8.50;;;;;8.59;67.13;101920.63;5011286;28;45212;-79
2021/10/22 03:11:13;;;;;;;;;7.25;7.25;;;;;8.57;67.11;101927.56;5018812;28;45430;-78
2021/10/22 03:13:39;;;;;;;;;8.25;8.25;;;;;8.58;66.81;101928.44;5018253;28;46271;-78
2021/10/22 03:16:04;;;;;;;;;12.00;11.75;;;;;8.55;66.33;101924.06;5016554;28;45374;-78
2021/10/22 03:18:30;;;;;;;;;12.25;10.00;;;;;8.55;67.08;101924.06;5010871;28;45193;-78
2021/10/22 03:20:55;;;;;;;;;11.50;11.50;;;;;8.54;67.04;101917.97;5021036;28;45387;-78
2021/10/22 03:23:21;;;;;;;;;10.25;7.00;;;;;8.51;66.82;101928.47;5022388;28;46198;-77
2021/10/22 03:25:46;;;;;;;;;13.00;10.00;;;;;8.50;66.34;101929.34;5022069;28;45229;-78
2021/10/22 03:28:12;;;;;;;;;8.25;8.25;;;;;8.52;66.29;101932.81;5022838;28;45131;-77
2021/10/22 03:30:37;;;;;;;;;9.25;9.25;;;;;8.47;66.59;101931.97;5021784;28;45240;-77
2021/10/22 03:33:04;;;;;;;;;12.00;10.75;;;;;8.50;66.43;101937.22;5004775;28;45912;-77
2021/10/22 03:35:30;;;;;;;;;7.75;7.75;;;;;8.45;66.89;101923.25;5021862;28;45339;-76
2021/10/22 03:37:55;;;;;;;;;12.50;11.75;;;;;8.47;67.10;101926.72;5022441;28;45245;-76
2021/10/22 03:40:21;;;;;;;;;14.00;12.50;;;;;8.48;66.57;101933.72;5003882;28;46445;-76
2021/10/22 03:42:48;;;;;;;;;11.25;10.75;;;;;8.46;67.13;101930.25;4997531;28;46263;-75
2021/10/22 03:45:14;;;;;;;;;17.50;14.75;;;;;8.45;66.61;101933.72;5012798;28;45517;-76
2021/10/22 03:47:39;;;;;;;;;13.50;11.25;;;;;8.43;66.61;101932.88;5018940;28;45362;-76
2021/10/22 03:50:06;;;;;;;;;12.00;11.00;;;;;8.44;66.87;101932.00;5021229;28;45270;-81
2021/10/22 03:52:31;;;;;;;;;14.25;14.00;;;;;8.40;66.68;101932.88;5022249;28;45715;-76
2021/10/22 03:54:56;;;;;;;;;13.75;13.75;;;;;8.38;66.70;101927.66;5015319;28;45216;-76
2021/10/22 03:57:22;;;;;;;;;13.50;12.50;;;;;8.38;66.72;101934.63;4989619;28;45440;-76
2021/10/22 03:59:47;;;;;;;;;12.50;10.50;;;;;8.33;66.74;101939.91;5017633;28;46219;-78
2021/10/22 04:02:13;;;;;;;;;16.50;13.50;;;;;8.31;67.22;101937.31;5021698;28;45431;-77
2021/10/22 04:04:38;;;;;;;;;15.50;12.75;;;;;8.31;67.09;101942.53;5021910;28;45356;-76
2021/10/22 04:07:04;;;;;;;;;15.00;13.25;;;;;8.30;67.33;101934.66;5015915;28;45403;-76
2021/10/22 04:09:33;;;;;;;;;21.25;18.00;;;;;8.35;67.37;101947.75;5014346;28;45430;-75
2021/10/22 04:11:59;;;;;;;;;15.00;14.25;;;;;8.35;66.99;101945.13;5021912;28;45555;-82
2021/10/22 04:14:24;;;;;;;;;14.25;12.25;;;;;8.31;67.25;101941.66;5003834;28;45797;-81
2021/10/22 04:16:50;;;;;;;;;15.75;12.25;;;;;8.32;67.07;101943.41;5022072;28;45309;-79
2021/10/22 04:19:16;;;;;;;;;13.75;13.75;;;;;8.29;67.43;101938.19;5021009;28;45515;-79
2021/10/22 04:21:41;;;;;;;;;12.50;12.50;;;;;8.28;66.59;101945.16;5021407;28;45568;-76
2021/10/22 04:24:07;;;;;;;;;15.00;12.50;;;;;8.27;66.77;101946.03;5021460;28;45642;-76
2021/10/22 04:26:32;;;;;;;;;21.75;19.50;;;;;8.26;66.73;101944.31;5019477;28;45518;-78
2021/10/22 04:28:58;;;;;;;;;18.25;15.25;;;;;8.26;66.96;101943.44;5009915;28;45467;-77
2021/10/22 04:31:24;;;;;;;;;20.00;17.00;;;;;8.30;66.95;101950.38;5021419;28;46410;-89
2021/10/22 04:33:49;;;;;;;;;20.00;18.00;;;;;8.27;67.23;101946.03;5009891;28;45416;-89
2021/10/22 04:36:15;;;;;;;;;17.50;17.50;;;;;8.26;66.97;101946.03;5020914;28;45355;-89
2021/10/22 04:41:25;;;;;;;;;17.75;15.75;;;;;8.26;67.16;101960.03;5021329;28;45729;-83
2021/10/22 04:43:51;;;;;;;;;17.00;15.75;;;;;8.24;67.06;101961.78;5009347;28;45846;-81
2021/10/22 04:46:18;;;;;;;;;12.50;11.50;;;;;8.23;67.37;101970.50;5020285;28;45449;-82
2021/10/22 04:48:44;;;;;;;;;17.75;14.75;;;;;8.20;66.74;101975.75;5007424;28;45158;-88
2021/10/22 04:51:10;;;;;;;;;20.25;15.00;;;;;8.18;66.86;101970.53;5008086;28;46775;-81
2021/10/22 04:53:35;;;;;;;;;15.25;15.25;;;;;8.16;66.87;101974.91;5011711;28;45232;-87
2021/10/22 04:56:02;;;;;;;;;16.25;14.00;;;;;8.16;67.14;101976.63;5017912;28;45563;-84
2021/10/22 04:58:27;;;;;;;;;16.75;15.00;;;;;8.12;66.87;101978.41;5001861;28;46103;-82
2021/10/22 05:00:53;;;;;;;;;17.00;15.25;;;;;8.13;67.16;101982.75;5020976;28;45447;-81
2021/10/22 05:03:19;;;;;;;;;17.00;15.25;;;;;8.10;66.92;101981.00;5014299;28;45415;-79
2021/10/22 05:05:44;;;;;;;;;20.50;18.25;;;;;8.08;67.40;101976.66;5014305;28;45540;-80
2021/10/22 05:08:09;;;;;;;;;14.00;13.00;;;;;8.10;67.40;101988.00;5020459;28;45517;-77
2021/10/22 05:10:35;;;;;;;;;18.75;17.00;;;;;8.04;67.43;101973.19;5023622;28;45835;-83
2021/10/22 05:13:00;;;;;;;;;19.50;19.00;;;;;8.05;67.23;101972.28;5019377;28;45386;-79
2021/10/22 05:15:26;;;;;;;;;18.50;17.50;;;;;8.07;66.75;101980.16;5020654;28;45225;-88
2021/10/22 05:17:51;;;;;;;;;22.00;21.75;;;;;8.05;66.92;101979.31;5003055;28;46093;-90
2021/10/22 05:20:17;;;;;;;;;41.00;32.25;;;;;8.03;66.78;101984.50;5015154;28;45989;-87
2021/10/22 05:22:42;;;;;;;;;45.75;35.75;;;;;8.03;67.12;101991.50;5018216;28;45427;-86
2021/10/22 05:25:11;;;;;;;;;43.25;33.50;;;;;8.01;66.75;101999.38;5002638;28;45376;-87
2021/10/22 05:27:36;;;;;;;;;54.75;37.50;;;;;7.99;66.88;102001.13;5002706;28;47019;-88
2021/10/22 05:30:06;;;;;;;;;55.25;37.00;;;;;7.95;67.31;101995.00;5020505;28;45234;-88
2021/10/22 05:32:31;;;;;;;;;37.00;28.75;;;;;7.96;66.82;101994.13;5015321;28;46883;-88
2021/10/22 05:34:57;;;;;;;;;36.00;28.25;;;;;7.95;66.90;101997.63;5002955;28;45330;-82
2021/10/22 05:37:23;;;;;;;;;61.25;44.25;;;;;7.92;66.58;101996.78;5020457;28;45423;-86
2021/10/22 05:39:49;;;;;;;;;104.50;87.25;;;;;7.91;67.00;102000.25;5018932;28;46336;-87
2021/10/22 05:42:14;;;;;;;;;103.25;77.75;;;;;7.88;67.08;101995.88;5002355;28;45582;-81
2021/10/22 05:44:39;;;;;;;;;82.75;65.50;;;;;7.83;66.66;101995.91;5020374;28;45292;-90
2021/10/22 05:47:05;;;;;;;;;68.00;52.00;;;;;7.83;66.94;101993.28;5020464;28;45308;-90
2021/10/22 05:49:30;;;;;;;;;51.75;37.25;;;;;7.81;67.29;101992.41;5006531;28;47927;-90
2021/10/22 05:51:56;;;;;;;;;45.25;34.00;;;;;7.81;66.77;101999.38;5018258;28;45238;-90
2021/10/22 05:54:21;;;;;;;;;31.50;28.00;;;;;7.81;67.33;101996.75;5020533;28;45324;-90
2021/10/22 05:56:49;;;;;;;;;25.50;20.75;;;;;7.82;67.07;102002.03;5020239;28;45201;-89
2021/10/22 05:59:14;;;;;;;;;23.00;21.25;;;;;7.82;67.10;102001.13;5031226;28;46588;-89
2021/10/22 06:01:40;;;;;;;;;19.50;17.75;;;;;7.78;67.15;101999.41;5001828;28;45320;-90
2021/10/22 06:04:05;;;;;;;;;22.75;19.50;;;;;7.80;67.12;101997.66;4982648;28;45327;-89
2021/10/22 06:06:30;;;;;;;;;20.75;19.00;;;;;7.81;67.28;102008.13;5000120;28;45400;-89
2021/10/22 06:08:58;;;;;;;;;20.25;19.25;;;;;7.78;67.12;101995.03;4997220;28;46273;-91
2021/10/22 06:11:24;;;;;;;;;20.75;16.50;;;;;7.78;67.03;101999.41;5014604;28;45733;-91
2021/10/22 06:13:49;;;;;;;;;24.25;21.75;;;;;7.72;67.64;101995.91;4990065;28;45435;-80
2021/10/22 06:16:16;;;;;;;;;20.00;18.75;;;;;7.75;67.64;102000.28;5019817;28;45339;-83
2021/10/22 06:18:48;;;;;;;;;21.75;18.50;;;;;7.76;67.26;102010.75;5006675;28;45467;-77
2021/10/22 06:21:22;;;;;;;;;24.00;18.50;;;;;7.77;67.15;102022.09;5018546;28;45295;-83
2021/10/22 06:23:55;;;;;;;;;21.00;20.00;;;;;7.77;67.29;102019.47;5018134;28;45470;-83
2021/10/22 06:26:22;;;;;;;;;20.00;19.50;;;;;7.78;67.56;102012.50;5012371;28;45418;-77
2021/10/22 06:28:49;;;;;;;;;23.25;21.25;;;;;7.81;67.75;102028.19;5018105;28;45390;-77
2021/10/22 06:31:15;;;;;;;;;25.00;23.00;;;;;7.78;67.10;102030.81;5016071;28;45824;-77
2021/10/22 06:33:41;;;;;;;;;28.50;26.00;;;;;7.80;67.76;102036.91;5020094;28;45292;-77
2021/10/22 06:36:08;;;;;;;;;36.50;30.50;;;;;7.79;67.39;102030.81;4999103;28;46344;-77
2021/10/22 06:38:34;;;;;;;;;49.00;39.25;;;;;7.75;67.19;102027.31;5019904;28;46364;-77
2021/10/22 06:41:00;;;;;;;;;47.00;36.75;;;;;7.79;67.79;102030.81;5018875;28;45288;-77
2021/10/22 06:43:25;;;;;;;;;40.50;34.00;;;;;7.80;67.70;102036.91;5008436;28;45339;-77
2021/10/22 06:45:51;;;;;;;;;37.00;27.75;;;;;7.81;67.51;102039.53;4988920;28;47018;-77
2021/10/22 06:48:17;;;;;;;;;32.00;27.50;;;;;7.81;67.46;102055.22;5001341;28;48326;-77
2021/10/22 06:50:44;;;;;;;;;33.75;27.75;;;;;7.81;67.96;102055.22;5009720;28;45332;-77
2021/10/22 06:53:10;;;;;;;;;37.00;34.00;;;;;7.80;67.54;102063.09;5025872;28;45312;-77
2021/10/22 06:55:36;;;;;;;;;38.25;32.00;;;;;7.81;67.50;102067.44;5010672;28;45499;-77
2021/10/22 06:58:03;;;;;;;;;30.25;27.50;;;;;7.82;67.57;102069.19;5022057;28;46369;-77
2021/10/22 07:00:28;;;;;;;;;28.75;25.00;;;;;7.84;68.15;102073.56;5030523;28;45447;-77
2021/10/22 07:02:55;;;;;;;;;31.25;24.00;;;;;7.88;67.63;102090.13;5012682;28;45301;-77
2021/10/22 07:08:04;;;;;;;;;26.50;24.00;;;;;7.92;67.89;102085.78;5022678;28;46119;-77
2021/10/22 07:10:31;;;;;;;;;23.50;22.50;;;;;7.95;68.14;102088.41;5016302;28;45888;-77
2021/10/22 07:12:57;;;;;;;;;22.00;21.25;;;;;7.94;68.16;102084.03;5018395;28;46158;-77
2021/10/22 07:15:23;;;;;;;;;23.00;21.25;;;;;7.98;68.39;102091.00;4985247;28;46439;-76
2021/10/22 07:17:48;;;;;;;;;20.50;17.25;;;;;8.01;68.55;102088.41;5016095;28;45540;-77
2021/10/22 07:20:15;;;;;;;;;21.25;20.00;;;;;8.03;68.26;102089.25;5018488;28;45203;-77
2021/10/22 07:22:51;;;;;;;;;22.00;18.75;;;;;8.09;68.39;102099.75;5022113;28;45458;-74
2021/10/22 07:25:19;;;;;;;;;20.50;19.50;;;;;8.10;68.38;102091.00;5021785;28;45403;-76
2021/10/22 07:27:45;;;;;;;;;19.50;16.25;;;;;8.14;68.37;102091.00;5022085;28;46448;-76
2021/10/22 07:30:11;;;;;;;;;19.50;18.50;;;;;8.17;68.41;102085.78;5019759;28;46079;-76
2021/10/22 07:32:36;;;;;;;;;22.00;17.00;;;;;8.22;68.44;102102.34;5021779;28;45335;-76
2021/10/22 07:35:03;;;;;;;;;19.75;18.50;;;;;8.25;69.02;102104.94;5009258;28;45429;-76
2021/10/22 07:37:29;;;;;;;;;21.50;17.75;;;;;8.28;69.09;102098.84;5013554;28;45202;-76
2021/10/22 07:39:54;;;;;;;;;27.75;20.75;;;;;8.35;68.74;102099.69;5022506;28;45269;-76
2021/10/22 07:42:21;;;;;;;;;24.00;20.50;;;;;8.37;69.20;102108.44;5015632;28;46465;-76
2021/10/22 07:44:46;;;;;;;;;26.50;19.75;;;;;8.43;68.77;102108.44;5018611;28;45162;-76
2021/10/22 07:47:12;;;;;;;;;25.00;21.25;;;;;8.47;69.24;102115.41;5018778;28;46285;-76
2021/10/22 07:49:37;;;;;;;;;24.75;23.50;;;;;8.55;68.83;102110.16;5012195;28;45205;-76
2021/10/22 07:52:04;;;;;;;;;22.00;20.75;;;;;8.59;69.33;102116.31;5021213;28;45683;-76
2021/10/22 07:54:29;;;;;;;;;30.00;24.75;;;;;8.62;69.39;102105.78;5022075;28;45383;-76
2021/10/22 07:56:55;;;;;;;;;21.50;18.50;;;;;8.68;69.25;102118.91;5020504;28;45333;-76
2021/10/22 07:59:21;;;;;;;;;27.50;24.25;;;;;8.68;69.62;102121.50;5019568;28;45523;-76
2021/10/22 08:01:46;;;;;;;;;26.25;23.75;;;;;8.73;69.02;102111.00;5030728;28;45355;-76
2021/10/22 08:04:13;;;;;;;;;28.25;19.00;;;;;8.80;69.37;102117.97;5018203;28;45432;-76
2021/10/22 08:06:39;;;;;;;;;23.25;21.75;;;;;8.82;69.35;102116.22;5015715;28;45456;-76
2021/10/22 08:09:05;;;;;;;;;24.00;21.00;;;;;8.87;69.32;102116.19;5016847;28;46051;-76
2021/10/22 08:11:31;;;;;;;;;24.00;21.75;;;;;8.94;69.36;102114.44;5015305;28;45984;-76
2021/10/22 08:13:58;;;;;;;;;23.50;20.50;;;;;8.98;69.13;102121.41;5021590;28;45245;-76
2021/10/22 08:16:24;;;;;;;;;18.00;16.50;;;;;9.00;69.20;102125.78;5008142;28;45438;-76
2021/10/22 08:18:49;;;;;;;;;11.00;8.75;;;;;9.07;68.92;102131.00;5021872;28;45467;-76
2021/10/22 08:21:22;;;;;;;;;8.00;8.00;;;;;9.12;68.83;102126.59;5020070;28;45406;-76
2021/10/22 08:23:49;;;;;;;;;9.00;8.00;;;;;9.18;68.96;102134.47;5010571;28;45203;-76
2021/10/22 08:26:16;;;;;;;;;7.25;6.25;;;;;9.23;69.10;102137.91;5021717;28;45429;-76
2021/10/22 08:28:42;;;;;;;;;4.25;4.25;;;;;9.31;68.96;102139.66;5021699;28;45700;-76
2021/10/22 08:31:08;;;;;;;;;3.50;3.00;;;;;9.38;68.84;102138.75;5018801;28;45326;-76
2021/10/22 08:33:33;;;;;;;;;7.50;4.75;;;;;9.50;68.11;102142.16;5011149;28;46014;-76
2021/10/22 08:35:59;;;;;;;;;4.75;4.25;;;;;9.60;68.28;102146.47;5021531;28;46247;-76
2021/10/22 08:38:28;;;;;;;;;4.25;4.00;;;;;9.72;67.38;102147.28;5020845;28;45478;-76
2021/10/22 08:40:55;;;;;;;;;5.50;3.00;;;;;9.82;67.32;102154.22;5008676;28;45379;-75
2021/10/22 08:43:23;;;;;;;;;2.50;2.50;;;;;9.89;67.42;102142.78;5020321;28;45474;-75
2021/10/22 08:45:53;;;;;;;;;2.25;2.25;;;;;9.96;67.21;102148.84;5021371;28;45404;-76
2021/10/22 08:48:18;;;;;;;;;1.00;1.00;;;;;9.99;66.50;102153.22;5016913;28;45529;-76
2021/10/22 08:50:43;;;;;;;;;3.50;3.00;;;;;10.07;66.94;102151.41;5013794;28;45269;-76
2021/10/22 08:53:09;;;;;;;;;2.00;2.00;;;;;10.13;65.47;102160.97;5019334;28;45493;-81
2021/10/22 08:55:34;;;;;;;;;4.00;4.00;;;;;10.16;65.92;102154.81;5019557;28;46361;-75
2021/10/22 08:58:01;;;;;;;;;3.75;3.75;;;;;10.22;66.13;102154.78;5018076;28;45445;-77
2021/10/22 09:00:26;;;;;;;;;5.50;4.75;;;;;10.27;66.52;102158.25;5016990;28;45396;-77
2021/10/22 09:02:52;;;;;;;;;3.75;3.75;;;;;10.38;65.53;102155.50;5013407;28;45514;-77
2021/10/22 09:05:19;;;;;;;;;5.00;5.00;;;;;10.52;65.94;102167.69;5012645;28;47009;-77
2021/10/22 09:07:53;;;;;;;;;4.75;4.75;;;;;10.60;65.73;102159.72;5021076;28;45241;-77
2021/10/22 09:10:24;;;;;;;;;4.75;3.50;;;;;10.65;64.68;102160.53;5020417;28;45229;-77
2021/10/22 09:12:51;;;;;;;;;6.75;5.00;;;;;10.69;65.00;102160.50;5015123;28;45543;-76
2021/10/22 09:15:21;;;;;;;;;8.50;4.00;;;;;10.70;64.49;102161.38;5010058;28;45460;-75
2021/10/22 09:17:47;;;;;;;;;11.25;6.25;;;;;10.75;64.27;102159.56;5019179;28;45256;-75
2021/10/22 09:20:14;;;;;;;;;4.00;4.00;;;;;10.75;65.48;102164.81;5021110;28;45280;-75
2021/10/22 09:22:46;;;;;;;;;5.50;2.25;;;;;10.82;64.54;102172.63;5020439;28;45433;-76
2021/10/22 09:25:12;;;;;;;;;2.25;2.25;;;;;10.87;64.47;102176.97;5017587;28;45628;-76
2021/10/22 09:27:45;;;;;;;;;4.75;2.00;;;;;10.91;64.54;102172.56;5020737;28;45304;-75
2021/10/22 09:30:30;;;;;;;;;6.75;5.75;;;;;10.98;64.75;102181.25;5017750;28;45468;-75
2021/10/22 09:32:58;;;;;;;;;3.75;3.75;;;;;10.99;64.54;102183.84;5010587;28;45265;-75
2021/10/22 09:35:36;;;;;;;;;2.25;2.25;;;;;11.08;64.25;102182.88;5005006;28;46197;-77
2021/10/22 09:38:17;;;;;;;;;4.00;2.75;;;;;11.13;64.73;102178.44;5010878;28;45769;-77
2021/10/22 09:40:45;;;;;;;;;4.00;3.00;;;;;11.20;64.03;102187.13;5020464;28;45233;-77
2021/10/22 09:43:21;;;;;;;;;4.25;4.00;;;;;11.21;63.53;102186.22;5020229;28;45439;-77
2021/10/22 09:45:48;;;;;;;;;4.75;3.75;;;;;11.28;63.65;102188.78;5020226;28;45736;-77
2021/10/22 09:48:26;;;;;;;;;4.50;2.25;;;;;11.38;64.07;102189.53;5015600;28;45813;-78
2021/10/22 09:50:53;;;;;;;;;2.75;2.75;;;;;11.44;63.86;102190.31;5013981;28;45244;-78
2021/10/22 09:53:27;;;;;;;;;2.50;2.50;;;;;11.50;63.81;102193.78;5020925;28;45932;-78
2021/10/22 09:56:07;;;;;;;;;3.50;3.50;;;;;11.55;64.39;102187.56;5012169;28;46258;-78
2021/10/22 09:58:36;;;;;;;;;2.50;2.50;;;;;11.66;64.06;102197.03;5009566;28;45590;-78
2021/10/22 10:01:06;;;;;;;;;2.00;1.50;;;;;11.71;63.93;102195.22;5014861;28;45272;-78
2021/10/22 10:03:43;;;;;;;;;1.50;1.50;;;;;11.77;63.50;102191.63;5020086;28;45612;-78
2021/10/22 10:06:09;;;;;;;;;7.25;3.75;;;;;11.82;62.93;102195.97;5001566;28;48311;-78
2021/10/22 10:08:40;;;;;;;;;2.00;2.00;;;;;11.87;63.37;102198.53;5013611;28;45772;-78
2021/10/22 10:11:08;;;;;;;;;3.50;2.50;;;;;11.90;62.23;102192.34;5021867;28;45339;-78
2021/10/22 10:13:34;;;;;;;;;2.75;1.50;;;;;11.95;62.77;102189.63;5020133;28;45540;-78
2021/10/22 10:16:01;;;;;;;;;4.00;3.00;;;;;12.02;62.72;102197.41;5019569;28;45665;-78
2021/10/22 10:18:28;;;;;;;;;6.25;4.75;;;;;12.07;62.33;102191.19;5020075;28;45618;-78
2021/10/22 10:20:56;;;;;;;;;7.25;6.00;;;;;12.15;62.86;102202.50;5007054;28;45383;-78
2021/10/22 10:23:22;;;;;;;;;6.00;3.25;;;;;12.14;62.02;102196.38;5019608;28;45594;-78
2021/10/22 10:25:48;;;;;;;;;1.75;1.75;;;;;12.22;62.59;102198.88;5019685;28;46149;-78
2021/10/22 10:28:13;;;;;;;;;6.00;6.00;;;;;12.28;61.80;102203.19;5019728;28;45240;-78
2021/10/22 10:30:39;;;;;;;;;7.25;4.25;;;;;12.32;61.48;102199.59;5007783;28;45225;-78
2021/10/22 10:33:07;;;;;;;;;4.00;2.75;;;;;12.37;62.17;102197.75;5018967;28;45380;-78
2021/10/22 10:35:42;;;;;;;;;3.50;3.50;;;;;12.46;62.14;102201.13;5020163;28;45744;-78
2021/10/22 10:38:12;;;;;;;;;3.50;3.50;;;;;12.53;61.78;102196.59;5007094;28;45459;-78
2021/10/22 10:40:38;;;;;;;;;5.50;5.00;;;;;12.59;60.62;102201.78;5014454;28;45412;-78
2021/10/22 10:43:19;;;;;;;;;6.25;6.25;;;;;12.66;60.83;102203.41;5018243;28;45255;-78
2021/10/22 10:45:45;;;;;;;;;8.00;6.00;;;;;12.72;61.12;102210.34;5010675;28;45612;-78
2021/10/22 10:48:19;;;;;;;;;6.00;5.50;;;;;12.77;60.91;102205.84;5015155;28;45518;-78
2021/10/22 10:50:52;;;;;;;;;14.25;10.25;;;;;12.83;60.41;102213.66;5009381;28;45360;-77
2021/10/22 10:53:29;;;;;;;;;4.75;3.00;;;;;12.87;60.73;102210.94;5001322;28;47158;-77
2021/10/22 10:55:55;;;;;;;;;3.00;2.75;;;;;12.93;61.67;102208.19;5018652;28;45410;-77
2021/10/22 10:58:24;;;;;;;;;1.50;1.50;;;;;13.02;61.50;102220.34;5016103;28;45367;-78
2021/10/22 11:00:56;;;;;;;;;4.75;4.50;;;;;13.05;59.63;102205.31;5003868;28;45234;-78
2021/10/22 11:03:43;;;;;;;;;2.75;2.50;;;;;13.07;60.64;102199.13;4999561;28;45520;-78
2021/10/22 11:06:09;;;;;;;;;2.00;2.00;;;;;13.10;60.61;102202.59;5007975;28;45522;-78
2021/10/22 11:08:34;;;;;;;;;2.00;2.00;;;;;13.20;59.41;102207.69;5004175;28;45721;-78
2021/10/22 11:14:04;;;;;;;;;2.50;2.00;;;;;13.30;60.79;102197.78;5026396;28;45379;-78
2021/10/22 11:16:44;;;;;;;;;2.75;1.00;;;;;13.36;59.92;102201.16;5014817;28;46110;-77
2021/10/22 11:19:14;;;;;;;;;2.00;2.00;;;;;13.35;57.39;102195.94;5020725;28;45824;-77
2021/10/22 11:21:48;;;;;;;;;3.25;2.50;;;;;13.38;57.97;102201.16;5020497;28;45457;-77
2021/10/22 11:24:34;;;;;;;;;2.50;1.00;;;;;13.39;58.39;102195.81;5021521;28;45422;-77
2021/10/22 11:27:06;;;;;;;;;1.00;1.00;;;;;13.42;57.99;102189.59;5018230;28;45289;-77
2021/10/22 11:29:34;;;;;;;;;2.00;1.50;;;;;13.48;58.56;102189.47;5003887;28;45764;-77